Hasenkamp, Argentina
Current Conditions -  °F | °C
As of 1:00 AM on Friday 19 Dec 2014 (Local Time) from SAAR Reporting Station
Clear Clear  
Wind Chill: 72°   Ceiling: Unl
Heat Index: 72°   Visibility: 6mi
Dew Point: 61°   Wind: 7mph
Humidity: 69%   Direction: 340°NNW
Pressure: 29.77"   Gusts: NA
Location:  31.52°S, 59.85°W
Report Text: SAAR 190400Z 34006KT CAVOK 22/16 Q1008
Loading
Personal Weather Stations






























Interactive Weather Map New forecast layout! Learn more

10-Day Weather Forecast

Advertisements
Track Severe Weather on mobile